| time (UTC) | temp F | wind direction | speed MPH | gust MPH | rain 1hr in | rain 24hr in | rain mn in | humidity % | barometer mb |
| 20260508174920 | 69 | 21 | 2.0 | 2.0 | 0.00 | 0.00 | 0.00 | 37 | 1018.4 |
| 20260508174417 | 70 | 104 | 0.0 | 1.0 | 0.00 | 0.00 | 0.00 | 39 | 1019.1 |
| 20260508173914 | 68 | 80 | 1.0 | 1.0 | 0.00 | 0.00 | 0.00 | 45 | 1018.9 |
| 20260508173411 | 69 | 151 | 1.0 | 1.0 | 0.00 | 0.00 | 0.00 | 41 | 1019.0 |
| 20260508172906 | 67 | 223 | 2.0 | 2.0 | 0.00 | 0.00 | 0.00 | 43 | 1018.8 |
| 20260508172405 | 66 | 300 | 0.0 | 1.0 | 0.00 | 0.00 | 0.00 | 41 | 1019.1 |
| 20260508171900 | 68 | 106 | 3.0 | 3.0 | 0.00 | 0.00 | 0.00 | 39 | 1019.2 |
| 20260508171356 | 68 | 197 | 1.0 | 1.0 | 0.00 | 0.00 | 0.00 | 39 | 1019.3 |
| 20260508170853 | 67 | 77 | 4.0 | 5.0 | 0.00 | 0.00 | 0.00 | 40 | 1019.6 |
| 20260508170351 | 67 | 145 | 0.0 | 0.0 | 0.00 | 0.00 | 0.00 | 50 | 1019.6 |
| 20260508165847 | 67 | 69 | 3.0 | 5.0 | 0.00 | 0.00 | 0.00 | 43 | 1019.7 |
| 20260508165345 | 67 | 91 | 4.0 | 6.0 | 0.00 | 0.00 | 0.00 | 42 | 1019.9 |
| 20260508164841 | 67 | 94 | 3.0 | 3.0 | 0.00 | 0.00 | 0.00 | 44 | 1019.9 |
| 20260508164338 | 66 | 96 | 2.0 | 2.0 | 0.00 | 0.00 | 0.00 | 42 | 1020.0 |
| 20260508163836 | 65 | 153 | 2.0 | 2.0 | 0.00 | 0.00 | 0.00 | 49 | 1020.0 |
| 20260508163334 | 66 | 133 | 2.0 | 2.0 | 0.00 | 0.00 | 0.00 | 44 | 1020.1 |
| 20260508162829 | 66 | 148 | 2.0 | 2.0 | 0.00 | 0.00 | 0.00 | 45 | 1020.4 |
| 20260508162326 | 64 | 93 | 0.0 | 1.0 | 0.00 | 0.00 | 0.00 | 47 | 1020.6 |
| 20260508161823 | 63 | 78 | 0.0 | 1.0 | 0.00 | 0.00 | 0.00 | 54 | 1020.5 |
| 20260508161320 | 63 | 127 | 1.0 | 1.0 | 0.00 | 0.00 | 0.00 | 53 | 1020.8 |
| 20260508160818 | 62 | 170 | 2.0 | 2.0 | 0.00 | 0.00 | 0.00 | 53 | 1020.8 |
| 20260508160316 | 63 | 241 | 2.0 | 3.0 | 0.00 | 0.00 | 0.00 | 55 | 1020.9 |
| 20260508155812 | 62 | 259 | 1.0 | 2.0 | 0.00 | 0.00 | 0.00 | 53 | 1021.1 |
| 20260508155309 | 61 | 221 | 2.0 | 2.0 | 0.00 | 0.00 | 0.00 | 53 | 1021.1 |
| 20260508154806 | 61 | 248 | 3.0 | 5.0 | 0.00 | 0.00 | 0.00 | 56 | 1021.1 |
| 20260508154304 | 60 | 328 | 3.0 | 3.0 | 0.00 | 0.00 | 0.00 | 58 | 1021.0 |
| 20260508153800 | 60 | 21 | 3.0 | 3.0 | 0.00 | 0.00 | 0.00 | 64 | 1021.3 |
| 20260508153258 | 60 | 0 | 1.0 | 2.0 | 0.00 | 0.00 | 0.00 | 65 | 1021.2 |
| 20260508152754 | 61 | 34 | 3.0 | 3.0 | 0.00 | 0.00 | 0.00 | 65 | 1021.3 |
| 20260508152250 | 60 | 92 | 2.0 | 2.0 | 0.00 | 0.00 | 0.00 | 63 | 1021.3 |
| 20260508151746 | 60 | 211 | 0.0 | 1.0 | 0.00 | 0.00 | 0.00 | 69 | 1021.3 |
| 20260508151243 | 61 | 174 | 2.0 | 2.0 | 0.00 | 0.00 | 0.00 | 69 | 1021.3 |
| 20260508150740 | 61 | 84 | 2.0 | 2.0 | 0.00 | 0.00 | 0.00 | 70 | 1021.4 |
| 20260508150237 | 59 | 134 | 0.0 | 1.0 | 0.00 | 0.00 | 0.00 | 78 | 1021.6 |
| 20260508145733 | 56 | 232 | 1.0 | 1.0 | 0.00 | 0.00 | 0.00 | 81 | 1021.6 |
| 20260508145229 | 58 | 106 | 0.0 | 0.0 | 0.00 | 0.00 | 0.00 | 76 | 1021.5 |
| 20260508144726 | 57 | 125 | 1.0 | 1.0 | 0.00 | 0.00 | 0.00 | 80 | 1021.6 |
| 20260508144224 | 57 | 62 | 1.0 | 2.0 | 0.00 | 0.00 | 0.00 | 81 | 1021.6 |
| 20260508143721 | 57 | 84 | 1.0 | 2.0 | 0.00 | 0.00 | 0.00 | 82 | 1021.5 |
| 20260508143218 | 57 | 122 | 2.0 | 2.0 | 0.00 | 0.00 | 0.00 | 81 | 1021.6 |
| 20260508142714 | 55 | 56 | 2.0 | 2.0 | 0.00 | 0.00 | 0.00 | 85 | 1021.5 |
| 20260508142211 | 56 | 72 | 2.0 | 3.0 | 0.00 | 0.00 | 0.00 | 84 | 1021.4 |
| 20260508141708 | 55 | 132 | 2.0 | 2.0 | 0.00 | 0.00 | 0.00 | 84 | 1021.6 |
| 20260508141205 | 54 | 86 | 2.0 | 2.0 | 0.00 | 0.00 | 0.00 | 86 | 1021.6 |
| 20260508140703 | 53 | 116 | 1.0 | 1.0 | 0.00 | 0.00 | 0.00 | 88 | 1021.7 |
| 20260508140159 | 53 | 92 | 1.0 | 2.0 | 0.00 | 0.00 | 0.00 | 89 | 1021.7 |
| 20260508135656 | 53 | 121 | 0.0 | 0.0 | 0.00 | 0.00 | 0.00 | 89 | 1021.6 |
| 20260508135151 | 52 | 124 | 1.0 | 1.0 | 0.00 | 0.00 | 0.00 | 89 | 1021.4 |
| 20260508134647 | 51 | 65 | 2.0 | 2.0 | 0.00 | 0.00 | 0.00 | 93 | 1021.5 |
| 20260508134145 | 50 | 118 | 0.0 | 0.0 | 0.00 | 0.00 | 0.00 | 96 | 1021.7 |
| 20260508133642 | 49 | 74 | 2.0 | 2.0 | 0.00 | 0.00 | 0.00 | 97 | 1021.6 |
| 20260508133139 | 48 | 43 | 1.0 | 2.0 | 0.00 | 0.00 | 0.00 | 99 | 1021.6 |
| 20260508132637 | 47 | 95 | 1.0 | 2.0 | 0.00 | 0.00 | 0.00 | 99 | 1021.6 |
| 20260508132133 | 48 | 61 | 3.0 | 3.0 | 0.00 | 0.00 | 0.00 | 99 | 1021.6 |
| 20260508131629 | 47 | 67 | 2.0 | 3.0 | 0.00 | 0.00 | 0.00 | 99 | 1021.6 |
| 20260508131126 | 47 | 93 | 0.0 | 0.0 | 0.00 | 0.00 | 0.00 | 99 | 1021.5 |
| 20260508130622 | 47 | 98 | 0.0 | 0.0 | 0.00 | 0.00 | 0.00 | 99 | 1021.6 |
| 20260508130119 | 46 | 84 | 0.0 | 0.0 | 0.00 | 0.00 | 0.00 | 99 | 1021.6 |
| 20260508125620 | 46 | 356 | 1.0 | 1.0 | 0.00 | 0.00 | 0.00 | 99 | 1021.3 |
| 20260508125118 | 47 | 90 | 2.0 | 2.0 | 0.00 | 0.00 | 0.00 | 99 | 1021.5 |
| 20260508124616 | 46 | 107 | 0.0 | 0.0 | 0.00 | 0.00 | 0.00 | 99 | 1021.4 |
| 20260508124112 | 46 | 102 | 1.0 | 1.0 | 0.00 | 0.00 | 0.00 | 99 | 1021.4 |
| 20260508123611 | 46 | 97 | 0.0 | 0.0 | 0.00 | 0.00 | 0.00 | 99 | 1021.3 |
| 20260508123108 | 46 | 104 | 0.0 | 0.0 | 0.00 | 0.00 | 0.00 | 99 | 1021.4 |
| 20260508122603 | 45 | 120 | 0.0 | 0.0 | 0.00 | 0.00 | 0.00 | 99 | 1021.4 |
| 20260508122101 | 45 | 113 | 2.0 | 2.0 | 0.00 | 0.00 | 0.00 | 99 | 1021.3 |
| 20260508121559 | 45 | 103 | 2.0 | 2.0 | 0.00 | 0.00 | 0.00 | 99 | 1021.2 |
| 20260508121057 | 44 | 97 | 2.0 | 2.0 | 0.00 | 0.00 | 0.00 | 99 | 1021.1 |
| 20260508120554 | 44 | 108 | 1.0 | 1.0 | 0.00 | 0.00 | 0.00 | 99 | 1021.0 |
| 20260508120053 | 44 | 84 | 2.0 | 2.0 | 0.00 | 0.00 | 0.00 | 99 | 1020.9 |
| 20260508115549 | 43 | 106 | 1.0 | 1.0 | 0.00 | 0.00 | 0.00 | 99 | 1021.1 |
| 20260508115046 | 43 | 99 | 2.0 | 3.0 | 0.00 | 0.00 | 0.00 | 99 | 1020.9 |
| 20260508114543 | 43 | 109 | 0.0 | 1.0 | 0.00 | 0.00 | 0.00 | 99 | 1020.9 |
| 20260508114039 | 43 | 120 | 1.0 | 2.0 | 0.00 | 0.00 | 0.00 | 99 | 1020.8 |
| 20260508113537 | 44 | 99 | 2.0 | 3.0 | 0.00 | 0.00 | 0.00 | 99 | 1020.8 |
| 20260508113035 | 43 | 92 | 2.0 | 2.0 | 0.00 | 0.00 | 0.00 | 99 | 1020.5 |
| 20260508112531 | 43 | 98 | 0.0 | 0.0 | 0.00 | 0.00 | 0.00 | 99 | 1020.4 |
| 20260508112028 | 43 | 94 | 1.0 | 1.0 | 0.00 | 0.00 | 0.00 | 99 | 1020.5 |
| 20260508111525 | 43 | 111 | 2.0 | 2.0 | 0.00 | 0.00 | 0.00 | 99 | 1020.6 |
| 20260508111021 | 42 | 92 | 0.0 | 0.0 | 0.00 | 0.00 | 0.00 | 99 | 1020.5 |
| 20260508110520 | 42 | 81 | 0.0 | 0.0 | 0.00 | 0.00 | 0.00 | 99 | 1020.3 |
| 20260508110015 | 41 | 98 | 0.0 | 0.0 | 0.00 | 0.00 | 0.00 | 99 | 1020.0 |
| 20260508105510 | 41 | 106 | 0.0 | 0.0 | 0.00 | 0.00 | 0.00 | 99 | 1020.1 |
| 20260508105008 | 41 | 107 | 0.0 | 0.0 | 0.00 | 0.00 | 0.00 | 99 | 1020.0 |
| 20260508104506 | 41 | 107 | 0.0 | 0.0 | 0.00 | 0.00 | 0.00 | 99 | 1019.8 |
| 20260508104002 | 41 | 108 | 0.0 | 0.0 | 0.00 | 0.00 | 0.00 | 99 | 1019.7 |
| 20260508103459 | 42 | 108 | 0.0 | 0.0 | 0.00 | 0.00 | 0.00 | 99 | 1019.8 |
| 20260508102955 | 42 | 107 | 0.0 | 0.0 | 0.00 | 0.00 | 0.00 | 99 | 1019.7 |
| 20260508102454 | 42 | 110 | 0.0 | 0.0 | 0.00 | 0.00 | 0.00 | 99 | 1019.8 |
| 20260508101951 | 42 | 116 | 0.0 | 0.0 | 0.00 | 0.00 | 0.00 | 99 | 1019.9 |
| 20260508101449 | 43 | 127 | 0.0 | 0.0 | 0.00 | 0.00 | 0.00 | 99 | 1019.8 |
| 20260508100945 | 43 | 180 | 0.0 | 0.0 | 0.00 | 0.00 | 0.00 | 99 | 1019.8 |
| 20260508100444 | 44 | 181 | 0.0 | 0.0 | 0.00 | 0.00 | 0.00 | 99 | 1019.8 |
| 20260508095940 | 44 | 106 | 0.0 | 0.0 | 0.00 | 0.00 | 0.00 | 99 | 1019.4 |
| 20260508095438 | 44 | 36 | 0.0 | 0.0 | 0.00 | 0.00 | 0.00 | 99 | 1019.7 |
| 20260508094934 | 44 | 104 | 0.0 | 0.0 | 0.00 | 0.00 | 0.00 | 99 | 1019.4 |
| 20260508094431 | 44 | 100 | 0.0 | 0.0 | 0.00 | 0.00 | 0.00 | 99 | 1019.6 |
| 20260508093928 | 44 | 100 | 0.0 | 0.0 | 0.00 | 0.00 | 0.00 | 99 | 1019.6 |
| 20260508093426 | 44 | 91 | 0.0 | 0.0 | 0.00 | 0.00 | 0.00 | 99 | 1019.6 |
| 20260508092923 | 44 | 91 | 1.0 | 1.0 | 0.00 | 0.00 | 0.00 | 99 | 1019.7 |
| 20260508092421 | 44 | 100 | 1.0 | 1.0 | 0.00 | 0.00 | 0.00 | 99 | 1019.6 |
| 20260508091919 | 45 | 85 | 0.0 | 1.0 | 0.00 | 0.00 | 0.00 | 99 | 1019.7 |
| 20260508091415 | 45 | 141 | 0.0 | 0.0 | 0.00 | 0.00 | 0.00 | 99 | 1019.4 |
| 20260508090913 | 45 | 110 | 0.0 | 0.0 | 0.00 | 0.00 | 0.00 | 99 | 1019.4 |
| 20260508090411 | 45 | 106 | 1.0 | 1.0 | 0.00 | 0.00 | 0.00 | 99 | 1019.6 |
| 20260508085906 | 46 | 108 | 0.0 | 0.0 | 0.00 | 0.00 | 0.00 | 99 | 1019.3 |
| 20260508085403 | 46 | 109 | 0.0 | 0.0 | 0.00 | 0.00 | 0.00 | 99 | 1019.1 |
| 20260508084900 | 46 | 106 | 0.0 | 0.0 | 0.00 | 0.00 | 0.00 | 99 | 1019.1 |
| 20260508084356 | 46 | 99 | 0.0 | 0.0 | 0.00 | 0.00 | 0.00 | 99 | 1019.3 |
| 20260508083854 | 46 | 101 | 2.0 | 2.0 | 0.00 | 0.00 | 0.00 | 99 | 1019.3 |
| 20260508083352 | 46 | 103 | 1.0 | 1.0 | 0.00 | 0.00 | 0.00 | 99 | 1019.1 |
| 20260508082851 | 46 | 91 | 2.0 | 3.0 | 0.00 | 0.00 | 0.00 | 99 | 1019.3 |
| 20260508082349 | 46 | 86 | 1.0 | 1.0 | 0.00 | 0.00 | 0.00 | 99 | 1019.2 |
| 20260508081846 | 46 | 104 | 0.0 | 1.0 | 0.00 | 0.00 | 0.00 | 99 | 1019.2 |
| 20260508081343 | 47 | 109 | 0.0 | 0.0 | 0.00 | 0.00 | 0.00 | 99 | 1019.1 |
| 20260508080840 | 47 | 94 | 0.0 | 0.0 | 0.00 | 0.00 | 0.00 | 99 | 1019.2 |
| 20260508080338 | 46 | 105 | 0.0 | 0.0 | 0.00 | 0.00 | 0.00 | 99 | 1018.9 |
| 20260508075834 | 47 | 105 | 1.0 | 1.0 | 0.00 | 0.00 | 0.00 | 99 | 1019.1 |
| 20260508075331 | 47 | 103 | 0.0 | 0.0 | 0.00 | 0.00 | 0.00 | 99 | 1019.0 |
| 20260508074829 | 47 | 102 | 0.0 | 0.0 | 0.00 | 0.00 | 0.00 | 99 | 1019.2 |
| 20260508074326 | 47 | 96 | 0.0 | 0.0 | 0.00 | 0.00 | 0.00 | 99 | 1019.0 |
| 20260508073823 | 47 | 92 | 0.0 | 0.0 | 0.00 | 0.00 | 0.00 | 99 | 1019.1 |
| 20260508073321 | 47 | 111 | 0.0 | 0.0 | 0.00 | 0.00 | 0.00 | 99 | 1019.3 |
| 20260508072817 | 47 | 87 | 0.0 | 0.0 | 0.00 | 0.00 | 0.00 | 99 | 1019.1 |
| 20260508072314 | 47 | 99 | 2.0 | 2.0 | 0.00 | 0.00 | 0.00 | 99 | 1019.0 |
| 20260508071811 | 47 | 107 | 0.0 | 0.0 | 0.00 | 0.00 | 0.00 | 99 | 1019.0 |
| 20260508071309 | 48 | 105 | 1.0 | 1.0 | 0.00 | 0.00 | 0.00 | 99 | 1019.0 |
| 20260508070806 | 48 | 93 | 0.0 | 0.0 | 0.00 | 0.00 | 0.00 | 99 | 1019.1 |
| 20260508070305 | 48 | 99 | 0.0 | 0.0 | 0.00 | 0.00 | 0.00 | 99 | 1018.9 |
| 20260508065802 | 48 | 99 | 0.0 | 0.0 | 0.00 | 0.00 | 0.00 | 99 | 1018.9 |
| 20260508065259 | 47 | 98 | 0.0 | 0.0 | 0.00 | 0.00 | 0.00 | 99 | 1019.1 |
| 20260508064758 | 47 | 101 | 0.0 | 0.0 | 0.00 | 0.00 | 0.00 | 99 | 1019.2 |
| 20260508064255 | 47 | 103 | 0.0 | 0.0 | 0.00 | 0.00 | 0.00 | 99 | 1019.3 |
| 20260508063752 | 47 | 103 | 0.0 | 0.0 | 0.00 | 0.00 | 0.00 | 99 | 1019.1 |
| 20260508063250 | 46 | 103 | 0.0 | 0.0 | 0.00 | 0.00 | 0.00 | 99 | 1019.1 |
| 20260508062747 | 46 | 103 | 0.0 | 0.0 | 0.00 | 0.00 | 0.00 | 99 | 1019.0 |
| 20260508062245 | 46 | 103 | 0.0 | 0.0 | 0.00 | 0.00 | 0.00 | 99 | 1018.9 |
| 20260508061741 | 45 | 103 | 0.0 | 0.0 | 0.00 | 0.00 | 0.00 | 99 | 1019.0 |
| 20260508061238 | 46 | 103 | 0.0 | 0.0 | 0.00 | 0.00 | 0.00 | 99 | 1019.2 |
| 20260508060735 | 45 | 103 | 0.0 | 0.0 | 0.00 | 0.00 | 0.00 | 99 | 1019.2 |
| 20260508060233 | 46 | 103 | 0.0 | 0.0 | 0.00 | 0.00 | 0.00 | 99 | 1019.2 |
| 20260508055728 | 46 | 103 | 0.0 | 0.0 | 0.00 | 0.00 | 0.00 | 99 | 1019.1 |
| 20260508055225 | 46 | 103 | 0.0 | 0.0 | 0.00 | 0.00 | 0.00 | 99 | 1019.1 |
| 20260508054721 | 46 | 103 | 0.0 | 0.0 | 0.00 | 0.00 | 0.00 | 99 | 1019.2 |
| 20260508054220 | 46 | 103 | 0.0 | 0.0 | 0.00 | 0.00 | 0.00 | 99 | 1019.1 |
| 20260508053716 | 46 | 103 | 0.0 | 0.0 | 0.00 | 0.00 | 0.00 | 99 | 1019.2 |
| 20260508053214 | 47 | 103 | 0.0 | 0.0 | 0.00 | 0.00 | 0.00 | 99 | 1019.2 |
| 20260508052711 | 47 | 103 | 0.0 | 0.0 | 0.00 | 0.00 | 0.00 | 99 | 1019.1 |
| 20260508052208 | 47 | 103 | 0.0 | 0.0 | 0.00 | 0.00 | 0.00 | 99 | 1019.3 |
| 20260508051704 | 47 | 103 | 0.0 | 0.0 | 0.00 | 0.00 | 0.00 | 99 | 1019.1 |
| 20260508051159 | 48 | 103 | 0.0 | 0.0 | 0.00 | 0.00 | 0.00 | 99 | 1019.1 |
| 20260508050656 | 48 | 103 | 0.0 | 0.0 | 0.00 | 0.00 | 0.00 | 99 | 1019.1 |
| 20260508050154 | 48 | 103 | 0.0 | 0.0 | 0.00 | 0.00 | 0.00 | 99 | 1019.2 |
| 20260508045649 | 48 | 103 | 0.0 | 0.0 | 0.00 | 0.00 | 0.00 | 99 | 1019.1 |
| 20260508045147 | 48 | 102 | 0.0 | 0.0 | 0.00 | 0.00 | 0.00 | 99 | 1019.1 |
| 20260508044644 | 48 | 109 | 0.0 | 0.0 | 0.00 | 0.00 | 0.00 | 99 | 1018.7 |
| 20260508044140 | 48 | 109 | 0.0 | 0.0 | 0.00 | 0.00 | 0.00 | 99 | 1018.6 |
| 20260508043637 | 48 | 109 | 0.0 | 0.0 | 0.00 | 0.00 | 0.00 | 99 | 1018.6 |
| 20260508043135 | 49 | 109 | 0.0 | 0.0 | 0.00 | 0.00 | 0.00 | 99 | 1018.6 |
| 20260508042631 | 49 | 109 | 0.0 | 0.0 | 0.00 | 0.00 | 0.00 | 99 | 1018.6 |
| 20260508042128 | 49 | 109 | 0.0 | 0.0 | 0.00 | 0.00 | 0.00 | 99 | 1018.6 |
| 20260508041624 | 49 | 109 | 0.0 | 0.0 | 0.00 | 0.00 | 0.00 | 99 | 1018.6 |
| 20260508041121 | 50 | 109 | 0.0 | 0.0 | 0.00 | 0.00 | 0.00 | 99 | 1018.6 |
| 20260508040618 | 50 | 109 | 0.0 | 0.0 | 0.00 | 0.00 | 0.00 | 99 | 1018.6 |
| 20260508040116 | 50 | 109 | 0.0 | 0.0 | 0.00 | 0.11 | 0.11 | 99 | 1018.6 |
| 20260508035613 | 50 | 109 | 0.0 | 0.0 | 0.00 | 0.11 | 0.11 | 99 | 1018.6 |
| 20260508035110 | 50 | 109 | 0.0 | 0.0 | 0.00 | 0.11 | 0.11 | 99 | 1018.3 |
| 20260508034606 | 50 | 108 | 0.0 | 0.0 | 0.00 | 0.11 | 0.11 | 99 | 1018.2 |
| 20260508034104 | 50 | 113 | 0.0 | 0.0 | 0.00 | 0.11 | 0.11 | 99 | 1018.4 |
| 20260508033601 | 51 | 113 | 0.0 | 0.0 | 0.00 | 0.11 | 0.11 | 99 | 1018.3 |
| 20260508033059 | 51 | 134 | 0.0 | 0.0 | 0.00 | 0.11 | 0.11 | 99 | 1018.4 |
| 20260508032555 | 51 | 134 | 0.0 | 0.0 | 0.00 | 0.11 | 0.11 | 99 | 1018.6 |
| 20260508032053 | 51 | 134 | 0.0 | 0.0 | 0.00 | 0.11 | 0.11 | 99 | 1018.6 |
| 20260508031550 | 51 | 134 | 0.0 | 0.0 | 0.00 | 0.11 | 0.11 | 99 | 1018.3 |
| 20260508031046 | 51 | 135 | 0.0 | 0.0 | 0.00 | 0.11 | 0.11 | 99 | 1018.3 |
| 20260508030542 | 52 | 135 | 0.0 | 0.0 | 0.00 | 0.11 | 0.11 | 99 | 1018.2 |
| 20260508030041 | 52 | 135 | 0.0 | 0.0 | 0.00 | 0.11 | 0.11 | 99 | 1018.1 |
| 20260508025536 | 52 | 135 | 0.0 | 0.0 | 0.00 | 0.11 | 0.11 | 99 | 1018.2 |
| 20260508025034 | 52 | 135 | 0.0 | 0.0 | 0.00 | 0.11 | 0.11 | 99 | 1018.1 |
| 20260508024529 | 52 | 134 | 0.0 | 0.0 | 0.00 | 0.11 | 0.11 | 99 | 1017.8 |
| 20260508024027 | 52 | 130 | 0.0 | 0.0 | 0.00 | 0.11 | 0.11 | 99 | 1017.9 |
| 20260508023523 | 53 | 130 | 0.0 | 0.0 | 0.00 | 0.11 | 0.11 | 99 | 1017.7 |
| 20260508023021 | 53 | 129 | 0.0 | 0.0 | 0.00 | 0.11 | 0.11 | 99 | 1017.8 |
| 20260508022516 | 53 | 124 | 0.0 | 0.0 | 0.00 | 0.11 | 0.11 | 99 | 1017.9 |
| 20260508022013 | 53 | 137 | 0.0 | 0.0 | 0.00 | 0.11 | 0.11 | 99 | 1017.6 |
| 20260508021509 | 53 | 139 | 0.0 | 0.0 | 0.00 | 0.11 | 0.11 | 98 | 1017.9 |
| 20260508021005 | 53 | 140 | 0.0 | 0.0 | 0.00 | 0.11 | 0.11 | 98 | 1017.8 |
| 20260508020503 | 53 | 141 | 0.0 | 0.0 | 0.00 | 0.11 | 0.11 | 98 | 1017.5 |
| 20260508020000 | 54 | 107 | 0.0 | 0.0 | 0.00 | 0.11 | 0.11 | 97 | 1017.6 |
| 20260508015458 | 54 | 107 | 0.0 | 0.0 | 0.00 | 0.11 | 0.11 | 97 | 1017.3 |
| 20260508014954 | 54 | 107 | 0.0 | 0.0 | 0.00 | 0.11 | 0.11 | 96 | 1017.4 |
| 20260508014451 | 54 | 107 | 0.0 | 0.0 | 0.00 | 0.11 | 0.11 | 96 | 1017.2 |
| 20260508013947 | 54 | 101 | 0.0 | 0.0 | 0.00 | 0.11 | 0.11 | 95 | 1016.9 |
| 20260508013443 | 55 | 102 | 0.0 | 0.0 | 0.00 | 0.11 | 0.11 | 94 | 1017.1 |
| 20260508012941 | 55 | 100 | 0.0 | 0.0 | 0.00 | 0.11 | 0.11 | 94 | 1016.8 |
| 20260508012437 | 55 | 99 | 1.0 | 1.0 | 0.00 | 0.11 | 0.11 | 94 | 1017.0 |
| 20260508011935 | 55 | 97 | 0.0 | 0.0 | 0.00 | 0.11 | 0.11 | 94 | 1016.7 |
| 20260508011434 | 55 | 94 | 0.0 | 0.0 | 0.00 | 0.11 | 0.11 | 94 | 1016.8 |
| 20260508010930 | 55 | 99 | 0.0 | 0.0 | 0.00 | 0.11 | 0.11 | 93 | 1016.4 |
| 20260508010427 | 55 | 99 | 0.0 | 0.0 | 0.00 | 0.11 | 0.11 | 92 | 1016.2 |
| 20260508005924 | 56 | 98 | 0.0 | 0.0 | 0.00 | 0.11 | 0.11 | 92 | 1016.6 |
| 20260508005421 | 56 | 116 | 0.0 | 0.0 | 0.00 | 0.11 | 0.11 | 91 | 1016.4 |
| 20260508004917 | 56 | 101 | 0.0 | 0.0 | 0.00 | 0.11 | 0.11 | 91 | 1016.6 |
| 20260508004414 | 56 | 99 | 1.0 | 1.0 | 0.00 | 0.11 | 0.11 | 91 | 1016.2 |
| 20260508003910 | 56 | 75 | 0.0 | 0.0 | 0.00 | 0.11 | 0.11 | 91 | 1016.0 |
| 20260508003407 | 56 | 104 | 0.0 | 0.0 | 0.00 | 0.11 | 0.11 | 91 | 1016.0 |
| 20260508002904 | 56 | 126 | 0.0 | 0.0 | 0.00 | 0.11 | 0.11 | 90 | 1016.1 |
| 20260508002401 | 57 | 135 | 0.0 | 0.0 | 0.00 | 0.11 | 0.11 | 90 | 1016.0 |
| 20260508001857 | 57 | 108 | 0.0 | 0.0 | 0.00 | 0.11 | 0.11 | 89 | 1016.1 |
| 20260508001353 | 57 | 115 | 0.0 | 0.0 | 0.00 | 0.11 | 0.11 | 88 | 1016.0 |
| 20260508000850 | 58 | 114 | 0.0 | 0.0 | 0.00 | 0.11 | 0.11 | 87 | 1015.9 |
| 20260508000346 | 58 | 116 | 0.0 | 0.0 | 0.00 | 0.11 | 0.11 | 86 | 1016.0 |
| 20260507235843 | 58 | 121 | 0.0 | 0.0 | 0.00 | 0.11 | 0.11 | 85 | 1015.8 |
| 20260507235340 | 59 | 122 | 0.0 | 0.0 | 0.00 | 0.11 | 0.11 | 85 | 1015.8 |
| 20260507234837 | 60 | 92 | 0.0 | 0.0 | 0.00 | 0.11 | 0.11 | 83 | 1016.1 |
| 20260507234334 | 60 | 158 | 0.0 | 0.0 | 0.00 | 0.11 | 0.11 | 82 | 1016.0 |
| 20260507233830 | 61 | 77 | 1.0 | 2.0 | 0.00 | 0.11 | 0.11 | 82 | 1016.0 |
| 20260507233328 | 60 | 82 | 0.0 | 0.0 | 0.00 | 0.11 | 0.11 | 83 | 1016.0 |
| 20260507232826 | 60 | 86 | 0.0 | 0.0 | 0.00 | 0.11 | 0.11 | 82 | 1016.1 |
| 20260507232322 | 62 | 143 | 0.0 | 0.0 | 0.00 | 0.11 | 0.11 | 80 | 1016.0 |
| 20260507231819 | 63 | 108 | 0.0 | 0.0 | 0.00 | 0.11 | 0.11 | 76 | 1016.0 |
| 20260507231316 | 65 | 189 | 0.0 | 1.0 | 0.00 | 0.11 | 0.11 | 72 | 1016.0 |
| 20260507230812 | 64 | 159 | 0.0 | 0.0 | 0.00 | 0.11 | 0.11 | 73 | 1016.0 |
| 20260507230309 | 64 | 147 | 0.0 | 0.0 | 0.00 | 0.11 | 0.11 | 75 | 1016.0 |
| 20260507225804 | 65 | 65 | 1.0 | 1.0 | 0.00 | 0.11 | 0.11 | 74 | 1016.1 |
| 20260507225300 | 63 | 23 | 0.0 | 0.0 | 0.00 | 0.11 | 0.11 | 74 | 1016.3 |
| 20260507224756 | 65 | 116 | 1.0 | 1.0 | 0.00 | 0.11 | 0.11 | 73 | 1016.1 |
| 20260507224253 | 66 | 162 | 0.0 | 0.0 | 0.00 | 0.11 | 0.11 | 71 | 1016.2 |
| 20260507223749 | 65 | 217 | 0.0 | 0.0 | 0.00 | 0.11 | 0.11 | 73 | 1016.2 |
| 20260507223245 | 64 | 241 | 0.0 | 1.0 | 0.00 | 0.11 | 0.11 | 75 | 1016.0 |
| 20260507222743 | 62 | 284 | 0.0 | 0.0 | 0.00 | 0.11 | 0.11 | 76 | 1016.0 |
| 20260507222233 | 60 | 286 | 1.0 | 1.0 | 0.00 | 0.11 | 0.11 | 73 | 1015.8 |
| 20260507221730 | 60 | 265 | 0.0 | 1.0 | 0.00 | 0.11 | 0.11 | 75 | 1015.9 |
| 20260507221226 | 60 | 303 | 1.0 | 1.0 | 0.00 | 0.11 | 0.11 | 74 | 1015.9 |
| 20260507220723 | 60 | 246 | 1.0 | 1.0 | 0.00 | 0.11 | 0.11 | 75 | 1016.0 |
| 20260507220222 | 61 | 229 | 0.0 | 0.0 | 0.00 | 0.11 | 0.11 | 74 | 1015.8 |
| 20260507215717 | 61 | 252 | 0.0 | 0.0 | 0.00 | 0.11 | 0.11 | 71 | 1015.7 |
| 20260507215215 | 61 | 244 | 1.0 | 1.0 | 0.00 | 0.11 | 0.11 | 75 | 1015.8 |
| 20260507214712 | 61 | 267 | 0.0 | 1.0 | 0.00 | 0.11 | 0.11 | 72 | 1015.9 |
| 20260507214209 | 62 | 215 | 1.0 | 1.0 | 0.00 | 0.11 | 0.11 | 72 | 1015.6 |
| 20260507213704 | 62 | 354 | 0.0 | 1.0 | 0.00 | 0.11 | 0.11 | 71 | 1015.7 |
| 20260507213202 | 62 | 304 | 1.0 | 2.0 | 0.00 | 0.11 | 0.11 | 68 | 1015.6 |
| 20260507212658 | 62 | 252 | 2.0 | 2.0 | 0.00 | 0.11 | 0.11 | 69 | 1015.5 |
| 20260507212155 | 60 | 272 | 2.0 | 2.0 | 0.00 | 0.11 | 0.11 | 74 | 1015.6 |
| 20260507211652 | 60 | 291 | 1.0 | 2.0 | 0.00 | 0.11 | 0.11 | 76 | 1015.6 |
| 20260507211147 | 60 | 319 | 1.0 | 2.0 | 0.00 | 0.11 | 0.11 | 76 | 1015.6 |
| 20260507210645 | 60 | 272 | 2.0 | 2.0 | 0.00 | 0.11 | 0.11 | 76 | 1015.5 |
| 20260507210141 | 60 | 216 | 1.0 | 1.0 | 0.00 | 0.11 | 0.11 | 75 | 1015.7 |
| 20260507205638 | 61 | 282 | 2.0 | 2.0 | 0.00 | 0.11 | 0.11 | 72 | 1015.4 |
| 20260507205134 | 61 | 239 | 0.0 | 0.0 | 0.00 | 0.11 | 0.11 | 72 | 1015.4 |
| 20260507204631 | 61 | 307 | 4.0 | 5.0 | 0.00 | 0.11 | 0.11 | 72 | 1015.3 |
| 20260507204129 | 61 | 223 | 1.0 | 1.0 | 0.00 | 0.11 | 0.11 | 74 | 1015.7 |
| 20260507203626 | 60 | 223 | 1.0 | 1.0 | 0.00 | 0.11 | 0.11 | 77 | 1015.4 |
| 20260507203123 | 61 | 295 | 1.0 | 2.0 | 0.00 | 0.11 | 0.11 | 74 | 1015.4 |
| 20260507202619 | 61 | 258 | 0.0 | 1.0 | 0.00 | 0.11 | 0.11 | 74 | 1015.3 |
| 20260507202115 | 62 | 295 | 2.0 | 2.0 | 0.00 | 0.11 | 0.11 | 72 | 1015.8 |
| 20260507201610 | 61 | 277 | 2.0 | 3.0 | 0.00 | 0.11 | 0.11 | 73 | 1015.4 |
| 20260507201108 | 60 | 230 | 1.0 | 2.0 | 0.00 | 0.11 | 0.11 | 76 | 1015.8 |
| 20260507200603 | 59 | 192 | 2.0 | 2.0 | 0.00 | 0.11 | 0.11 | 78 | 1015.6 |
| 20260507200100 | 59 | 224 | 0.0 | 1.0 | 0.00 | 0.11 | 0.11 | 78 | 1015.8 |
| 20260507195557 | 58 | 235 | 1.0 | 2.0 | 0.00 | 0.11 | 0.11 | 79 | 1015.7 |
| 20260507195054 | 58 | 226 | 2.0 | 3.0 | 0.00 | 0.11 | 0.11 | 80 | 1016.0 |
| 20260507194550 | 59 | 194 | 2.0 | 3.0 | 0.00 | 0.11 | 0.11 | 80 | 1016.1 |
| 20260507194046 | 58 | 209 | 1.0 | 1.0 | 0.00 | 0.11 | 0.11 | 81 | 1015.9 |
| 20260507193544 | 58 | 238 | 1.0 | 1.0 | 0.00 | 0.11 | 0.11 | 81 | 1015.8 |
| 20260507193041 | 59 | 221 | 3.0 | 3.0 | 0.00 | 0.11 | 0.11 | 80 | 1015.8 |
| 20260507192537 | 58 | 14 | 1.0 | 1.0 | 0.00 | 0.11 | 0.11 | 81 | 1015.8 |
| 20260507192034 | 59 | 282 | 1.0 | 1.0 | 0.00 | 0.11 | 0.11 | 82 | 1015.7 |
| 20260507191529 | 58 | 311 | 2.0 | 2.0 | 0.00 | 0.11 | 0.11 | 81 | 1015.6 |
| 20260507191026 | 58 | 298 | 2.0 | 2.0 | 0.00 | 0.11 | 0.11 | 82 | 1015.9 |
| 20260507190523 | 58 | 244 | 0.0 | 0.0 | 0.00 | 0.11 | 0.11 | 82 | 1016.1 |
| 20260507190022 | 57 | 302 | 3.0 | 3.0 | 0.00 | 0.11 | 0.11 | 82 | 1016.0 |
| 20260507185520 | 58 | 190 | 2.0 | 2.0 | 0.00 | 0.11 | 0.11 | 82 | 1016.1 |
| 20260507185016 | 58 | 222 | 3.0 | 3.0 | 0.00 | 0.11 | 0.11 | 82 | 1016.2 |
| 20260507184515 | 58 | 25 | 0.0 | 1.0 | 0.00 | 0.11 | 0.11 | 81 | 1016.2 |
| 20260507184012 | 58 | 292 | 3.0 | 3.0 | 0.00 | 0.11 | 0.11 | 81 | 1016.1 |
| 20260507183508 | 58 | 301 | 1.0 | 2.0 | 0.00 | 0.11 | 0.11 | 82 | 1016.4 |
| 20260507183005 | 58 | 259 | 2.0 | 2.0 | 0.00 | 0.11 | 0.11 | 84 | 1016.1 |
| 20260507182502 | 57 | 291 | 1.0 | 1.0 | 0.00 | 0.11 | 0.11 | 82 | 1016.3 |
| 20260507181957 | 57 | 266 | 1.0 | 2.0 | 0.00 | 0.11 | 0.11 | 84 | 1016.2 |
| 20260507181454 | 57 | 275 | 2.0 | 2.0 | 0.00 | 0.11 | 0.11 | 84 | 1016.2 |
| 20260507180950 | 57 | 260 | 1.0 | 1.0 | 0.00 | 0.11 | 0.11 | 84 | 1016.4 |
| 20260507180447 | 57 | 223 | 1.0 | 2.0 | 0.00 | 0.11 | 0.11 | 84 | 1016.4 |
| 20260507175943 | 56 | 277 | 2.0 | 2.0 | 0.00 | 0.11 | 0.11 | 84 | 1016.4 |
| 20260507175440 | 56 | 236 | 0.0 | 1.0 | 0.00 | 0.11 | 0.11 | 86 | 1016.6 |